RYR4TT EGPH-LZIB
Flight info
| Callsign | RYR4TT |
|---|---|
| Flight time | 2h 20m |
| Altitude | 37000 |
| Route | TLA Y96 OTBUN DCT LONAM DCT POVEL DCT OMELO DCT EVIKU DCT BNO DCT ODNEM A4 BERVA |
| Aircraft | B738/M-SDE2E3FGHIRWXY/LB1 |
Departure
| Time | 2026-05-03 23:14 |
|---|---|
| Airport | Edinburgh Airport (EGPH) |
Arrival
| Time | 2026-05-04 01:34 |
|---|---|
| Airport | M. R. Štefánik Airport (LZIB) |
| Time | Latitude | Longitude | Altitude | Speed | Heading |
|---|---|---|---|---|---|
| 2026-05-03 22:40 | 55.94572 | -3.36629 | 115 ft | 0 kts | 89° |
| 2026-05-03 23:02 | 55.94572 | -3.36630 | 115 ft | 1 kts | 89° |
| 2026-05-03 23:02 | 55.94571 | -3.36668 | 115 ft | 2 kts | 89° |
| 2026-05-03 23:02 | 55.94569 | -3.36705 | 114 ft | 4 kts | 117° |
| 2026-05-03 23:02 | 55.94581 | -3.36729 | 111 ft | 4 kts | 164° |
| 2026-05-03 23:03 | 55.94607 | -3.36734 | 113 ft | 4 kts | 179° |
| 2026-05-03 23:03 | 55.94634 | -3.36734 | 113 ft | 4 kts | 179° |
| 2026-05-03 23:03 | 55.94661 | -3.36735 | 112 ft | 4 kts | 179° |
| 2026-05-03 23:03 | 55.94688 | -3.36736 | 111 ft | 4 kts | 179° |
| 2026-05-03 23:04 | 55.94715 | -3.36736 | 113 ft | 4 kts | 179° |
| 2026-05-03 23:04 | 55.94736 | -3.36737 | 111 ft | 4 kts | 168° |
| 2026-05-03 23:04 | 55.94760 | -3.36755 | 111 ft | 4 kts | 158° |
| 2026-05-03 23:04 | 55.94784 | -3.36774 | 114 ft | 4 kts | 162° |
| 2026-05-03 23:05 | 55.94803 | -3.36782 | 113 ft | 4 kts | 187° |
| 2026-05-03 23:05 | 55.94830 | -3.36778 | 113 ft | 4 kts | 179° |
| 2026-05-03 23:05 | 55.94852 | -3.36779 | 115 ft | 4 kts | 182° |
| 2026-05-03 23:05 | 55.94877 | -3.36770 | 113 ft | 4 kts | 207° |
| 2026-05-03 23:06 | 55.94897 | -3.36748 | 111 ft | 1 kts | 217° |
| 2026-05-03 23:08 | 55.94891 | -3.36776 | 114 ft | 6 kts | 264° |
| 2026-05-03 23:08 | 55.94917 | -3.36827 | 115 ft | 6 kts | 315° |
| 2026-05-03 23:08 | 55.94923 | -3.36898 | 115 ft | 6 kts | 257° |
| 2026-05-03 23:08 | 55.94900 | -3.36974 | 114 ft | 13 kts | 240° |
| 2026-05-03 23:09 | 55.94829 | -3.37183 | 112 ft | 21 kts | 238° |
| 2026-05-03 23:09 | 55.94753 | -3.37402 | 114 ft | 20 kts | 238° |
| 2026-05-03 23:09 | 55.94682 | -3.37616 | 113 ft | 20 kts | 239° |
| 2026-05-03 23:09 | 55.94613 | -3.37824 | 114 ft | 19 kts | 238° |
| 2026-05-03 23:10 | 55.94544 | -3.38023 | 112 ft | 19 kts | 238° |
| 2026-05-03 23:10 | 55.94477 | -3.38215 | 113 ft | 18 kts | 238° |
| 2026-05-03 23:10 | 55.94434 | -3.38338 | 115 ft | 17 kts | 238° |
| 2026-05-03 23:10 | 55.94372 | -3.38520 | 112 ft | 17 kts | 240° |
| 2026-05-03 23:11 | 55.94315 | -3.38698 | 112 ft | 16 kts | 240° |
| 2026-05-03 23:11 | 55.94285 | -3.38830 | 115 ft | 10 kts | 288° |
| 2026-05-03 23:11 | 55.94336 | -3.38915 | 111 ft | 10 kts | 322° |
| 2026-05-03 23:11 | 55.94394 | -3.38974 | 113 ft | 8 kts | 359° |
| 2026-05-03 23:12 | 55.94433 | -3.38918 | 113 ft | 0 kts | 58° |
| 2026-05-03 23:13 | 55.94454 | -3.38857 | 113 ft | 23 kts | 58° |
| 2026-05-03 23:14 | 55.94678 | -3.38198 | 112 ft | 99 kts | 59° |
| 2026-05-03 23:14 | 55.95158 | -3.36813 | 138 ft | 158 kts | 57° |
| 2026-05-03 23:14 | 55.95762 | -3.35084 | 797 ft | 164 kts | 58° |
| 2026-05-03 23:14 | 55.96454 | -3.33457 | 1597 ft | 171 kts | 41° |
| 2026-05-03 23:15 | 55.97416 | -3.31953 | 2036 ft | 201 kts | 41° |
| 2026-05-03 23:15 | 55.98534 | -3.30187 | 2308 ft | 227 kts | 41° |
| 2026-05-03 23:15 | 55.99761 | -3.28237 | 2681 ft | 249 kts | 41° |
| 2026-05-03 23:15 | 56.01081 | -3.26121 | 3349 ft | 259 kts | 41° |
| 2026-05-03 23:16 | 56.02423 | -3.23961 | 4333 ft | 260 kts | 41° |
| 2026-05-03 23:16 | 56.03771 | -3.21786 | 5300 ft | 262 kts | 40° |
| 2026-05-03 23:16 | 56.04980 | -3.19308 | 6132 ft | 271 kts | 62° |
| 2026-05-03 23:16 | 56.05399 | -3.15999 | 6968 ft | 278 kts | 88° |
| 2026-05-03 23:17 | 56.05270 | -3.12511 | 7799 ft | 284 kts | 97° |
| 2026-05-03 23:17 | 56.04601 | -3.09227 | 8572 ft | 291 kts | 127° |
| 2026-05-03 23:17 | 56.03099 | -3.06726 | 9444 ft | 294 kts | 143° |
| 2026-05-03 23:17 | 56.01447 | -3.04514 | 10222 ft | 300 kts | 143° |
| 2026-05-03 23:18 | 55.99723 | -3.02211 | 10552 ft | 322 kts | 143° |
| 2026-05-03 23:18 | 55.97886 | -2.99767 | 10838 ft | 342 kts | 147° |
| 2026-05-03 23:18 | 55.95679 | -2.98157 | 11454 ft | 347 kts | 174° |
| 2026-05-03 23:18 | 55.93312 | -2.98600 | 12288 ft | 343 kts | 203° |
| 2026-05-03 23:19 | 55.91235 | -3.00651 | 13154 ft | 342 kts | 216° |
| 2026-05-03 23:19 | 55.89232 | -3.02985 | 13914 ft | 347 kts | 214° |
| 2026-05-03 23:19 | 55.87147 | -3.05205 | 14589 ft | 352 kts | 211° |
| 2026-05-03 23:19 | 55.84977 | -3.07273 | 15305 ft | 356 kts | 209° |
| 2026-05-03 23:20 | 55.82747 | -3.09220 | 16013 ft | 359 kts | 207° |
| 2026-05-03 23:20 | 55.80466 | -3.11106 | 16702 ft | 363 kts | 207° |
| 2026-05-03 23:20 | 55.78150 | -3.12969 | 17376 ft | 367 kts | 206° |
| 2026-05-03 23:20 | 55.75810 | -3.14830 | 18073 ft | 371 kts | 206° |
| 2026-05-03 23:21 | 55.73440 | -3.16711 | 18689 ft | 375 kts | 206° |
| 2026-05-03 23:21 | 55.71051 | -3.18605 | 19286 ft | 378 kts | 206° |
| 2026-05-03 23:21 | 55.68636 | -3.20520 | 19847 ft | 382 kts | 206° |
| 2026-05-03 23:21 | 55.66194 | -3.22454 | 20396 ft | 387 kts | 206° |
| 2026-05-03 23:22 | 55.61228 | -3.26382 | 21489 ft | 395 kts | 206° |
| 2026-05-03 23:22 | 55.58698 | -3.28329 | 22012 ft | 400 kts | 201° |
| 2026-05-03 23:22 | 55.55943 | -3.29167 | 22499 ft | 408 kts | 178° |
| 2026-05-03 23:23 | 55.53157 | -3.28183 | 23043 ft | 412 kts | 158° |
| 2026-05-03 23:23 | 55.50694 | -3.25590 | 23574 ft | 415 kts | 138° |
| 2026-05-03 23:23 | 55.48861 | -3.21682 | 24000 ft | 416 kts | 118° |
| 2026-05-03 23:23 | 55.47840 | -3.16931 | 24440 ft | 415 kts | 99° |
| 2026-05-03 23:24 | 55.47344 | -3.11940 | 24997 ft | 414 kts | 97° |
| 2026-05-03 23:24 | 55.46863 | -3.06931 | 25448 ft | 416 kts | 97° |
| 2026-05-03 23:24 | 55.46315 | -3.01900 | 25858 ft | 421 kts | 102° |
| 2026-05-03 23:24 | 55.45353 | -2.96997 | 26267 ft | 427 kts | 112° |
| 2026-05-03 23:25 | 55.43966 | -2.92428 | 26700 ft | 430 kts | 117° |
| 2026-05-03 23:25 | 55.42466 | -2.87848 | 27110 ft | 433 kts | 117° |
| 2026-05-03 23:25 | 55.40955 | -2.83248 | 27484 ft | 436 kts | 117° |
| 2026-05-03 23:25 | 55.39451 | -2.78599 | 27869 ft | 438 kts | 116° |
| 2026-05-03 23:26 | 55.37956 | -2.73919 | 28283 ft | 440 kts | 116° |
| 2026-05-03 23:26 | 55.36458 | -2.69211 | 28698 ft | 442 kts | 116° |
| 2026-05-03 23:26 | 55.34951 | -2.64494 | 29076 ft | 444 kts | 116° |
| 2026-05-03 23:26 | 55.33425 | -2.59758 | 29431 ft | 447 kts | 116° |
| 2026-05-03 23:27 | 55.31888 | -2.54997 | 29789 ft | 449 kts | 116° |
| 2026-05-03 23:27 | 55.30341 | -2.50216 | 30109 ft | 452 kts | 116° |
| 2026-05-03 23:27 | 55.28787 | -2.45413 | 30392 ft | 453 kts | 115° |
| 2026-05-03 23:27 | 55.27419 | -2.40441 | 30657 ft | 452 kts | 107° |
| 2026-05-03 23:28 | 55.26375 | -2.35247 | 30933 ft | 452 kts | 105° |
| 2026-05-03 23:28 | 55.25389 | -2.30014 | 31247 ft | 453 kts | 105° |
| 2026-05-03 23:28 | 55.24414 | -2.24764 | 31632 ft | 452 kts | 105° |
| 2026-05-03 23:28 | 55.23437 | -2.19545 | 32104 ft | 449 kts | 106° |
| 2026-05-03 23:29 | 55.22453 | -2.14359 | 32398 ft | 451 kts | 107° |
| 2026-05-03 23:29 | 55.21447 | -2.09130 | 32567 ft | 455 kts | 107° |
| 2026-05-03 23:29 | 55.20427 | -2.03888 | 32870 ft | 455 kts | 108° |
| 2026-05-03 23:29 | 55.19402 | -1.98661 | 33272 ft | 453 kts | 108° |
| 2026-05-03 23:30 | 55.18374 | -1.93450 | 33625 ft | 453 kts | 108° |
| 2026-05-03 23:30 | 55.17343 | -1.88242 | 33894 ft | 454 kts | 108° |
| 2026-05-03 23:30 | 55.16306 | -1.83022 | 34128 ft | 455 kts | 109° |
| 2026-05-03 23:30 | 55.15267 | -1.77801 | 34388 ft | 455 kts | 109° |
| 2026-05-03 23:31 | 55.14226 | -1.72582 | 34651 ft | 454 kts | 109° |
| 2026-05-03 23:31 | 55.13183 | -1.67367 | 34891 ft | 455 kts | 109° |
| 2026-05-03 23:31 | 55.12137 | -1.62149 | 35113 ft | 455 kts | 109° |
| 2026-05-03 23:31 | 55.11086 | -1.56919 | 35275 ft | 458 kts | 110° |
| 2026-05-03 23:32 | 55.10028 | -1.51672 | 35494 ft | 458 kts | 110° |
| 2026-05-03 23:32 | 55.08971 | -1.46438 | 35763 ft | 457 kts | 110° |
| 2026-05-03 23:32 | 55.07912 | -1.41211 | 36017 ft | 457 kts | 110° |
| 2026-05-03 23:32 | 55.06851 | -1.35987 | 36220 ft | 457 kts | 110° |
| 2026-05-03 23:33 | 55.05786 | -1.30758 | 36418 ft | 458 kts | 110° |
| 2026-05-03 23:33 | 55.04717 | -1.25522 | 36652 ft | 458 kts | 110° |
| 2026-05-03 23:33 | 55.03649 | -1.20305 | 36882 ft | 457 kts | 110° |
| 2026-05-03 23:33 | 55.02575 | -1.15073 | 37036 ft | 459 kts | 110° |
| 2026-05-03 23:34 | 55.00407 | -1.04558 | 37024 ft | 461 kts | 111° |
| 2026-05-03 23:34 | 54.98242 | -0.94103 | 37025 ft | 456 kts | 111° |
| 2026-05-03 23:35 | 54.96088 | -0.83758 | 37015 ft | 453 kts | 111° |
| 2026-05-03 23:35 | 54.93953 | -0.73559 | 37019 ft | 451 kts | 111° |
| 2026-05-03 23:36 | 54.91802 | -0.63335 | 37016 ft | 450 kts | 111° |
| 2026-05-03 23:36 | 54.89644 | -0.53131 | 37020 ft | 450 kts | 111° |
| 2026-05-03 23:37 | 54.87472 | -0.42909 | 37022 ft | 452 kts | 111° |
| 2026-05-03 23:37 | 54.85279 | -0.32643 | 37025 ft | 455 kts | 111° |
| 2026-05-03 23:38 | 54.83067 | -0.22340 | 37026 ft | 457 kts | 111° |
| 2026-05-03 23:38 | 54.80834 | -0.11991 | 37020 ft | 459 kts | 111° |
| 2026-05-03 23:39 | 54.78581 | -0.01600 | 37019 ft | 461 kts | 112° |
| 2026-05-03 23:39 | 54.76313 | 0.08809 | 37011 ft | 462 kts | 112° |
| 2026-05-03 23:40 | 54.74033 | 0.19219 | 37003 ft | 463 kts | 112° |
| 2026-05-03 23:40 | 54.71745 | 0.29613 | 36998 ft | 462 kts | 112° |
| 2026-05-03 23:41 | 54.69467 | 0.39908 | 36997 ft | 461 kts | 112° |
| 2026-05-03 23:41 | 54.67173 | 0.50229 | 36997 ft | 459 kts | 112° |
| 2026-05-03 23:42 | 54.64876 | 0.60508 | 36984 ft | 458 kts | 113° |
| 2026-05-03 23:42 | 54.62577 | 0.70748 | 36996 ft | 457 kts | 113° |
| 2026-05-03 23:43 | 54.60276 | 0.80946 | 36993 ft | 456 kts | 113° |
| 2026-05-03 23:43 | 54.57972 | 0.91109 | 36996 ft | 455 kts | 113° |
| 2026-05-03 23:44 | 54.55662 | 1.01248 | 36991 ft | 454 kts | 113° |
| 2026-05-03 23:44 | 54.53344 | 1.11373 | 36977 ft | 454 kts | 114° |
| 2026-05-03 23:45 | 54.51017 | 1.21490 | 36984 ft | 455 kts | 114° |
| 2026-05-03 23:45 | 54.48678 | 1.31610 | 36971 ft | 456 kts | 114° |
| 2026-05-03 23:46 | 54.46328 | 1.41731 | 36986 ft | 456 kts | 114° |
| 2026-05-03 23:46 | 54.43964 | 1.51861 | 36976 ft | 457 kts | 114° |
| 2026-05-03 23:47 | 54.41587 | 1.62000 | 36965 ft | 458 kts | 114° |
| 2026-05-03 23:47 | 54.39198 | 1.72144 | 36968 ft | 459 kts | 115° |
| 2026-05-03 23:48 | 54.36813 | 1.82222 | 36971 ft | 459 kts | 115° |
| 2026-05-03 23:48 | 54.34402 | 1.92365 | 36968 ft | 460 kts | 115° |
| 2026-05-03 23:49 | 54.31979 | 2.02508 | 36965 ft | 460 kts | 115° |
| 2026-05-03 23:49 | 54.29549 | 2.12635 | 36959 ft | 460 kts | 115° |
| 2026-05-03 23:50 | 54.27508 | 2.21105 | 36954 ft | 459 kts | 115° |
| 2026-05-03 23:50 | 54.24670 | 2.32825 | 36958 ft | 459 kts | 115° |
| 2026-05-03 23:51 | 54.22219 | 2.42894 | 36955 ft | 458 kts | 115° |
| 2026-05-03 23:51 | 54.19765 | 2.52934 | 36945 ft | 458 kts | 115° |
| 2026-05-03 23:52 | 54.17305 | 2.62950 | 36954 ft | 457 kts | 116° |
| 2026-05-03 23:52 | 54.14842 | 2.72932 | 36951 ft | 456 kts | 116° |
| 2026-05-03 23:53 | 54.12372 | 2.82898 | 36951 ft | 456 kts | 116° |
| 2026-05-03 23:53 | 54.09899 | 2.92832 | 36946 ft | 455 kts | 116° |
| 2026-05-03 23:54 | 54.07416 | 3.02760 | 36941 ft | 455 kts | 116° |
| 2026-05-03 23:54 | 54.04927 | 3.12670 | 36947 ft | 455 kts | 116° |
| 2026-05-03 23:55 | 54.02429 | 3.22568 | 36936 ft | 455 kts | 116° |
| 2026-05-03 23:55 | 53.99925 | 3.32449 | 36943 ft | 455 kts | 116° |
| 2026-05-03 23:56 | 53.97414 | 3.42315 | 36951 ft | 455 kts | 117° |
| 2026-05-03 23:56 | 53.94893 | 3.52174 | 36941 ft | 455 kts | 117° |
| 2026-05-03 23:57 | 53.92364 | 3.62022 | 36948 ft | 455 kts | 117° |
| 2026-05-03 23:57 | 53.89827 | 3.71859 | 36936 ft | 455 kts | 117° |
| 2026-05-03 23:58 | 53.87284 | 3.81678 | 36935 ft | 455 kts | 117° |
| 2026-05-03 23:58 | 53.84752 | 3.91416 | 36938 ft | 454 kts | 117° |
| 2026-05-03 23:59 | 53.82383 | 4.01349 | 36946 ft | 456 kts | 114° |
| 2026-05-03 23:59 | 53.80269 | 4.11476 | 36945 ft | 456 kts | 112° |
| 2026-05-04 00:00 | 53.78169 | 4.21605 | 36941 ft | 456 kts | 113° |
| 2026-05-04 00:00 | 53.76034 | 4.31691 | 36952 ft | 455 kts | 114° |
| 2026-05-04 00:01 | 53.74241 | 4.40043 | 36959 ft | 455 kts | 114° |
| 2026-05-04 00:01 | 53.72068 | 4.50086 | 36960 ft | 455 kts | 114° |
| 2026-05-04 00:02 | 53.69887 | 4.60121 | 36965 ft | 455 kts | 114° |
| 2026-05-04 00:02 | 53.67699 | 4.70139 | 36964 ft | 455 kts | 114° |
| 2026-05-04 00:03 | 53.65502 | 4.80152 | 36964 ft | 455 kts | 114° |
| 2026-05-04 00:03 | 53.63298 | 4.90149 | 36951 ft | 455 kts | 114° |
| 2026-05-04 00:04 | 53.61085 | 5.00139 | 36967 ft | 455 kts | 114° |
| 2026-05-04 00:04 | 53.58864 | 5.10120 | 36963 ft | 455 kts | 114° |
| 2026-05-04 00:05 | 53.56633 | 5.20095 | 36946 ft | 455 kts | 115° |
| 2026-05-04 00:05 | 53.54395 | 5.30055 | 36960 ft | 455 kts | 115° |
| 2026-05-04 00:06 | 53.52148 | 5.40005 | 36948 ft | 456 kts | 115° |
| 2026-05-04 00:06 | 53.49892 | 5.49951 | 36949 ft | 456 kts | 115° |
| 2026-05-04 00:07 | 53.47626 | 5.59892 | 36937 ft | 456 kts | 115° |
| 2026-05-04 00:07 | 53.45366 | 5.69760 | 36917 ft | 456 kts | 115° |
| 2026-05-04 00:08 | 53.43084 | 5.79678 | 36929 ft | 456 kts | 115° |
| 2026-05-04 00:08 | 53.40793 | 5.89590 | 36934 ft | 456 kts | 115° |
| 2026-05-04 00:09 | 53.38494 | 5.99492 | 36933 ft | 456 kts | 115° |
| 2026-05-04 00:09 | 53.36185 | 6.09387 | 36930 ft | 456 kts | 115° |
| 2026-05-04 00:10 | 53.33868 | 6.19274 | 36906 ft | 456 kts | 116° |
| 2026-05-04 00:10 | 53.31543 | 6.29150 | 36918 ft | 456 kts | 116° |
| 2026-05-04 00:11 | 53.29209 | 6.39017 | 36928 ft | 456 kts | 116° |
| 2026-05-04 00:11 | 53.26866 | 6.48875 | 36926 ft | 457 kts | 116° |
| 2026-05-04 00:12 | 53.24514 | 6.58728 | 36940 ft | 457 kts | 116° |
| 2026-05-04 00:12 | 53.22150 | 6.68584 | 36919 ft | 457 kts | 116° |
| 2026-05-04 00:13 | 53.19782 | 6.78416 | 36938 ft | 457 kts | 116° |
| 2026-05-04 00:13 | 53.17405 | 6.88240 | 36938 ft | 457 kts | 116° |
| 2026-05-04 00:14 | 53.15018 | 6.98060 | 36934 ft | 457 kts | 116° |
| 2026-05-04 00:14 | 53.12623 | 7.07867 | 36932 ft | 457 kts | 116° |
| 2026-05-04 00:15 | 53.10220 | 7.17663 | 36922 ft | 457 kts | 117° |
| 2026-05-04 00:15 | 53.07811 | 7.27442 | 36935 ft | 457 kts | 117° |
| 2026-05-04 00:16 | 53.05395 | 7.37205 | 36926 ft | 457 kts | 117° |
| 2026-05-04 00:16 | 53.02971 | 7.46958 | 36927 ft | 457 kts | 117° |
| 2026-05-04 00:17 | 53.00538 | 7.56703 | 36910 ft | 457 kts | 117° |
| 2026-05-04 00:17 | 52.98116 | 7.66363 | 36911 ft | 456 kts | 117° |
| 2026-05-04 00:18 | 52.95673 | 7.76066 | 36910 ft | 456 kts | 117° |
| 2026-05-04 00:18 | 52.93223 | 7.85752 | 36923 ft | 455 kts | 117° |
| 2026-05-04 00:19 | 52.90768 | 7.95417 | 36913 ft | 455 kts | 117° |
| 2026-05-04 00:19 | 52.88306 | 8.05066 | 36919 ft | 455 kts | 117° |
| 2026-05-04 00:20 | 52.85839 | 8.14695 | 36914 ft | 454 kts | 117° |
| 2026-05-04 00:20 | 52.83367 | 8.24301 | 36913 ft | 453 kts | 117° |
| 2026-05-04 00:21 | 52.80890 | 8.33884 | 36917 ft | 453 kts | 118° |
| 2026-05-04 00:21 | 52.78409 | 8.43444 | 36919 ft | 453 kts | 118° |
| 2026-05-04 00:22 | 52.75921 | 8.52990 | 36924 ft | 453 kts | 118° |
| 2026-05-04 00:22 | 52.73425 | 8.62525 | 36915 ft | 452 kts | 118° |
| 2026-05-04 00:23 | 52.70926 | 8.72035 | 36915 ft | 452 kts | 118° |
| 2026-05-04 00:23 | 52.68419 | 8.81531 | 36925 ft | 452 kts | 118° |
| 2026-05-04 00:24 | 52.65903 | 8.91024 | 36917 ft | 452 kts | 118° |
| 2026-05-04 00:24 | 52.63381 | 9.00499 | 36923 ft | 452 kts | 118° |
| 2026-05-04 00:25 | 52.60850 | 9.09971 | 36918 ft | 452 kts | 118° |
| 2026-05-04 00:25 | 52.58310 | 9.19435 | 36927 ft | 452 kts | 118° |
| 2026-05-04 00:26 | 52.55761 | 9.28892 | 36937 ft | 453 kts | 118° |
| 2026-05-04 00:26 | 52.53203 | 9.38346 | 36940 ft | 453 kts | 119° |
| 2026-05-04 00:27 | 52.50634 | 9.47803 | 36939 ft | 453 kts | 119° |
| 2026-05-04 00:27 | 52.48059 | 9.57243 | 36939 ft | 454 kts | 119° |
| 2026-05-04 00:28 | 52.45472 | 9.66688 | 36942 ft | 454 kts | 119° |
| 2026-05-04 00:28 | 52.42880 | 9.76110 | 36940 ft | 454 kts | 119° |
| 2026-05-04 00:29 | 52.40296 | 9.85469 | 36938 ft | 454 kts | 119° |
| 2026-05-04 00:29 | 52.37689 | 9.94871 | 36936 ft | 454 kts | 119° |
| 2026-05-04 00:30 | 52.35076 | 10.04256 | 36932 ft | 453 kts | 119° |
| 2026-05-04 00:30 | 52.32461 | 10.13612 | 36923 ft | 452 kts | 119° |
| 2026-05-04 00:31 | 52.29842 | 10.22947 | 36945 ft | 452 kts | 120° |
| 2026-05-04 00:31 | 52.27215 | 10.32269 | 36938 ft | 451 kts | 120° |
| 2026-05-04 00:32 | 52.24584 | 10.41570 | 36924 ft | 451 kts | 120° |
| 2026-05-04 00:32 | 52.21949 | 10.50853 | 36932 ft | 451 kts | 120° |
| 2026-05-04 00:33 | 52.17986 | 10.64738 | 36942 ft | 450 kts | 120° |
| 2026-05-04 00:34 | 52.15339 | 10.73978 | 36940 ft | 450 kts | 120° |
| 2026-05-04 00:34 | 52.12666 | 10.83200 | 36943 ft | 449 kts | 122° |
| 2026-05-04 00:35 | 52.09502 | 10.91879 | 36940 ft | 445 kts | 127° |
| 2026-05-04 00:35 | 52.06157 | 11.00340 | 36936 ft | 444 kts | 127° |
| 2026-05-04 00:36 | 52.02832 | 11.08791 | 36946 ft | 444 kts | 127° |
| 2026-05-04 00:36 | 51.99531 | 11.17276 | 36944 ft | 444 kts | 127° |
| 2026-05-04 00:37 | 51.96238 | 11.25764 | 36960 ft | 444 kts | 127° |
| 2026-05-04 00:37 | 51.92968 | 11.34172 | 36958 ft | 444 kts | 127° |
| 2026-05-04 00:38 | 51.89671 | 11.42623 | 36966 ft | 444 kts | 127° |
| 2026-05-04 00:38 | 51.86368 | 11.51057 | 36966 ft | 443 kts | 127° |
| 2026-05-04 00:39 | 51.83061 | 11.59472 | 36967 ft | 443 kts | 127° |
| 2026-05-04 00:39 | 51.79746 | 11.67880 | 36962 ft | 444 kts | 127° |
| 2026-05-04 00:40 | 51.76427 | 11.76272 | 36952 ft | 443 kts | 127° |
| 2026-05-04 00:40 | 51.73101 | 11.84654 | 36958 ft | 443 kts | 127° |
| 2026-05-04 00:41 | 51.69770 | 11.93021 | 36958 ft | 443 kts | 127° |
| 2026-05-04 00:41 | 51.66432 | 12.01376 | 36953 ft | 443 kts | 127° |
| 2026-05-04 00:42 | 51.63090 | 12.09716 | 36959 ft | 443 kts | 127° |
| 2026-05-04 00:42 | 51.59739 | 12.18051 | 36944 ft | 443 kts | 127° |
| 2026-05-04 00:43 | 51.56385 | 12.26367 | 36964 ft | 443 kts | 127° |
| 2026-05-04 00:43 | 51.53028 | 12.34664 | 36967 ft | 443 kts | 127° |
| 2026-05-04 00:44 | 51.49662 | 12.42956 | 36964 ft | 443 kts | 127° |
| 2026-05-04 00:44 | 51.46290 | 12.51237 | 36966 ft | 443 kts | 127° |
| 2026-05-04 00:45 | 51.42908 | 12.59513 | 36951 ft | 444 kts | 127° |
| 2026-05-04 00:45 | 51.39543 | 12.67723 | 36965 ft | 444 kts | 127° |
| 2026-05-04 00:46 | 51.36148 | 12.75980 | 36970 ft | 445 kts | 127° |
| 2026-05-04 00:46 | 51.32737 | 12.84249 | 36957 ft | 446 kts | 127° |
| 2026-05-04 00:47 | 51.29317 | 12.92516 | 36969 ft | 446 kts | 127° |
| 2026-05-04 00:47 | 51.25884 | 13.00786 | 36955 ft | 447 kts | 127° |
| 2026-05-04 00:48 | 51.22441 | 13.09054 | 36968 ft | 448 kts | 127° |
| 2026-05-04 00:48 | 51.18983 | 13.17331 | 36970 ft | 449 kts | 127° |
| 2026-05-04 00:49 | 51.15522 | 13.25589 | 36971 ft | 450 kts | 127° |
| 2026-05-04 00:49 | 51.12629 | 13.32473 | 36973 ft | 450 kts | 127° |
| 2026-05-04 00:50 | 51.09140 | 13.40749 | 36965 ft | 450 kts | 127° |
| 2026-05-04 00:50 | 51.05648 | 13.49008 | 36968 ft | 449 kts | 127° |
| 2026-05-04 00:51 | 51.02159 | 13.57234 | 36962 ft | 448 kts | 127° |
| 2026-05-04 00:51 | 50.98677 | 13.65417 | 36960 ft | 446 kts | 127° |
| 2026-05-04 00:52 | 50.95208 | 13.73544 | 36961 ft | 444 kts | 127° |
| 2026-05-04 00:52 | 50.91751 | 13.81619 | 36971 ft | 442 kts | 127° |
| 2026-05-04 00:53 | 50.88299 | 13.89659 | 36971 ft | 441 kts | 127° |
| 2026-05-04 00:53 | 50.84850 | 13.97662 | 36977 ft | 440 kts | 128° |
| 2026-05-04 00:54 | 50.80779 | 14.04731 | 36996 ft | 433 kts | 141° |
| 2026-05-04 00:54 | 50.76284 | 14.11074 | 36981 ft | 433 kts | 142° |
| 2026-05-04 00:55 | 50.71790 | 14.17440 | 36972 ft | 434 kts | 141° |
| 2026-05-04 00:55 | 50.67343 | 14.23803 | 36978 ft | 435 kts | 141° |
| 2026-05-04 00:56 | 50.62835 | 14.30264 | 36984 ft | 436 kts | 141° |
| 2026-05-04 00:56 | 50.58339 | 14.36692 | 36981 ft | 437 kts | 141° |
| 2026-05-04 00:57 | 50.53861 | 14.43075 | 36982 ft | 438 kts | 141° |
| 2026-05-04 00:57 | 50.49343 | 14.49500 | 36985 ft | 438 kts | 141° |
| 2026-05-04 00:58 | 50.44876 | 14.56036 | 36984 ft | 440 kts | 136° |
| 2026-05-04 00:58 | 50.40717 | 14.63094 | 36975 ft | 441 kts | 135° |
| 2026-05-04 00:59 | 50.36602 | 14.70221 | 36986 ft | 441 kts | 135° |
| 2026-05-04 00:59 | 50.32474 | 14.77303 | 36988 ft | 440 kts | 135° |
| 2026-05-04 01:00 | 50.28328 | 14.84347 | 36984 ft | 440 kts | 135° |
| 2026-05-04 01:00 | 50.24178 | 14.91362 | 36983 ft | 439 kts | 135° |
| 2026-05-04 01:01 | 50.20030 | 14.98352 | 36989 ft | 438 kts | 135° |
| 2026-05-04 01:01 | 50.15882 | 15.05325 | 36981 ft | 438 kts | 135° |
| 2026-05-04 01:02 | 50.11738 | 15.12272 | 36980 ft | 437 kts | 135° |
| 2026-05-04 01:02 | 50.07590 | 15.19207 | 36983 ft | 437 kts | 135° |
| 2026-05-04 01:03 | 50.03438 | 15.26129 | 36693 ft | 440 kts | 135° |
| 2026-05-04 01:03 | 50.01366 | 15.29578 | 36418 ft | 433 kts | 135° |
| 2026-05-04 01:03 | 49.99320 | 15.32980 | 36050 ft | 428 kts | 135° |
| 2026-05-04 01:03 | 49.97295 | 15.36341 | 35686 ft | 424 kts | 135° |
| 2026-05-04 01:04 | 49.95284 | 15.39675 | 35301 ft | 421 kts | 135° |
| 2026-05-04 01:04 | 49.93289 | 15.42977 | 34927 ft | 418 kts | 135° |
| 2026-05-04 01:04 | 49.91307 | 15.46254 | 34565 ft | 415 kts | 135° |
| 2026-05-04 01:04 | 49.89364 | 15.49462 | 34205 ft | 412 kts | 135° |
| 2026-05-04 01:05 | 49.87406 | 15.52689 | 33819 ft | 410 kts | 135° |
| 2026-05-04 01:05 | 49.85436 | 15.55934 | 33405 ft | 407 kts | 135° |
| 2026-05-04 01:05 | 49.83501 | 15.59116 | 33033 ft | 403 kts | 135° |
| 2026-05-04 01:05 | 49.81585 | 15.62262 | 32668 ft | 400 kts | 135° |
| 2026-05-04 01:06 | 49.79680 | 15.65389 | 32303 ft | 398 kts | 135° |
| 2026-05-04 01:06 | 49.77810 | 15.68453 | 31944 ft | 396 kts | 136° |
| 2026-05-04 01:06 | 49.75924 | 15.71539 | 31604 ft | 394 kts | 135° |
| 2026-05-04 01:06 | 49.74046 | 15.74609 | 31269 ft | 392 kts | 136° |
| 2026-05-04 01:07 | 49.72179 | 15.77656 | 30931 ft | 389 kts | 135° |
| 2026-05-04 01:07 | 49.70322 | 15.80686 | 30584 ft | 388 kts | 135° |
| 2026-05-04 01:07 | 49.68468 | 15.83706 | 30252 ft | 386 kts | 136° |
| 2026-05-04 01:07 | 49.66623 | 15.86706 | 29896 ft | 384 kts | 135° |
| 2026-05-04 01:08 | 49.64786 | 15.89692 | 29494 ft | 382 kts | 136° |
| 2026-05-04 01:08 | 49.62960 | 15.92657 | 29119 ft | 380 kts | 136° |
| 2026-05-04 01:08 | 49.61149 | 15.95592 | 28785 ft | 376 kts | 135° |
| 2026-05-04 01:08 | 49.59350 | 15.98504 | 28416 ft | 374 kts | 135° |
| 2026-05-04 01:09 | 49.57561 | 16.01399 | 28089 ft | 371 kts | 135° |
| 2026-05-04 01:09 | 49.55786 | 16.04266 | 27733 ft | 369 kts | 135° |
| 2026-05-04 01:09 | 49.54019 | 16.07118 | 27382 ft | 367 kts | 135° |
| 2026-05-04 01:09 | 49.52263 | 16.09949 | 27045 ft | 365 kts | 136° |
| 2026-05-04 01:10 | 49.50517 | 16.12760 | 26697 ft | 362 kts | 135° |
| 2026-05-04 01:10 | 49.48777 | 16.15558 | 26367 ft | 360 kts | 135° |
| 2026-05-04 01:10 | 49.47049 | 16.18335 | 26041 ft | 358 kts | 135° |
| 2026-05-04 01:10 | 49.45331 | 16.21093 | 25709 ft | 357 kts | 135° |
| 2026-05-04 01:11 | 49.43618 | 16.23840 | 25376 ft | 355 kts | 135° |
| 2026-05-04 01:11 | 49.41914 | 16.26569 | 25048 ft | 353 kts | 136° |
| 2026-05-04 01:11 | 49.40216 | 16.29285 | 24713 ft | 352 kts | 135° |
| 2026-05-04 01:11 | 49.38524 | 16.31988 | 24385 ft | 350 kts | 135° |
| 2026-05-04 01:12 | 49.36839 | 16.34679 | 24063 ft | 349 kts | 135° |
| 2026-05-04 01:12 | 49.35156 | 16.37364 | 23727 ft | 348 kts | 135° |
| 2026-05-04 01:12 | 49.33482 | 16.40031 | 23358 ft | 347 kts | 136° |
| 2026-05-04 01:12 | 49.31809 | 16.42693 | 22992 ft | 345 kts | 136° |
| 2026-05-04 01:13 | 49.30147 | 16.45335 | 22639 ft | 343 kts | 136° |
| 2026-05-04 01:13 | 49.28495 | 16.47960 | 22301 ft | 341 kts | 136° |
| 2026-05-04 01:13 | 49.26855 | 16.50562 | 21975 ft | 338 kts | 136° |
| 2026-05-04 01:13 | 49.25227 | 16.53144 | 21646 ft | 336 kts | 136° |
| 2026-05-04 01:14 | 49.23607 | 16.55708 | 21328 ft | 334 kts | 136° |
| 2026-05-04 01:14 | 49.21998 | 16.58254 | 20996 ft | 332 kts | 136° |
| 2026-05-04 01:14 | 49.20399 | 16.60783 | 20683 ft | 330 kts | 136° |
| 2026-05-04 01:14 | 49.18807 | 16.63297 | 20359 ft | 328 kts | 136° |
| 2026-05-04 01:15 | 49.17226 | 16.65791 | 20056 ft | 326 kts | 136° |
| 2026-05-04 01:15 | 49.15650 | 16.68273 | 19741 ft | 325 kts | 136° |
| 2026-05-04 01:15 | 49.14084 | 16.70753 | 19428 ft | 323 kts | 136° |
| 2026-05-04 01:15 | 49.12538 | 16.73238 | 19117 ft | 322 kts | 135° |
| 2026-05-04 01:16 | 49.11000 | 16.75719 | 18807 ft | 321 kts | 135° |
| 2026-05-04 01:16 | 49.09468 | 16.78190 | 18499 ft | 320 kts | 136° |
| 2026-05-04 01:16 | 49.07939 | 16.80654 | 18154 ft | 319 kts | 136° |
| 2026-05-04 01:16 | 49.06411 | 16.83111 | 17803 ft | 318 kts | 136° |
| 2026-05-04 01:17 | 49.04891 | 16.85554 | 17477 ft | 317 kts | 136° |
| 2026-05-04 01:17 | 49.03378 | 16.87981 | 17148 ft | 315 kts | 136° |
| 2026-05-04 01:17 | 49.01871 | 16.90394 | 16834 ft | 314 kts | 136° |
| 2026-05-04 01:17 | 49.00373 | 16.92793 | 16518 ft | 312 kts | 136° |
| 2026-05-04 01:18 | 48.98881 | 16.95179 | 16204 ft | 310 kts | 135° |
| 2026-05-04 01:18 | 48.97399 | 16.97547 | 15895 ft | 308 kts | 135° |
| 2026-05-04 01:18 | 48.95925 | 16.99899 | 15593 ft | 307 kts | 135° |
| 2026-05-04 01:18 | 48.94474 | 17.02213 | 15286 ft | 305 kts | 135° |
| 2026-05-04 01:19 | 48.93011 | 17.04545 | 14978 ft | 304 kts | 135° |
| 2026-05-04 01:19 | 48.91534 | 17.06896 | 14670 ft | 303 kts | 136° |
| 2026-05-04 01:19 | 48.90099 | 17.09180 | 14379 ft | 302 kts | 136° |
| 2026-05-04 01:19 | 48.88628 | 17.11517 | 14069 ft | 301 kts | 136° |
| 2026-05-04 01:20 | 48.87201 | 17.13783 | 13755 ft | 301 kts | 136° |
| 2026-05-04 01:20 | 48.85755 | 17.16075 | 13408 ft | 300 kts | 136° |
| 2026-05-04 01:20 | 48.84300 | 17.18385 | 12771 ft | 309 kts | 136° |
| 2026-05-04 01:20 | 48.82812 | 17.20756 | 12374 ft | 311 kts | 135° |
| 2026-05-04 01:21 | 48.81326 | 17.23129 | 12028 ft | 309 kts | 135° |
| 2026-05-04 01:21 | 48.79850 | 17.25483 | 11710 ft | 307 kts | 136° |
| 2026-05-04 01:21 | 48.78390 | 17.27811 | 11385 ft | 300 kts | 135° |
| 2026-05-04 01:21 | 48.76973 | 17.30068 | 11094 ft | 293 kts | 136° |
| 2026-05-04 01:22 | 48.75571 | 17.32297 | 10817 ft | 291 kts | 135° |
| 2026-05-04 01:22 | 48.74177 | 17.34510 | 10535 ft | 289 kts | 135° |
| 2026-05-04 01:22 | 48.72794 | 17.36704 | 10266 ft | 287 kts | 136° |
| 2026-05-04 01:22 | 48.71434 | 17.38859 | 10145 ft | 279 kts | 136° |
| 2026-05-04 01:23 | 48.70112 | 17.40956 | 10038 ft | 271 kts | 135° |
| 2026-05-04 01:23 | 48.68816 | 17.43010 | 9764 ft | 270 kts | 136° |
| 2026-05-04 01:23 | 48.67523 | 17.45057 | 9490 ft | 268 kts | 136° |
| 2026-05-04 01:23 | 48.66234 | 17.47095 | 9212 ft | 267 kts | 136° |
| 2026-05-04 01:24 | 48.64955 | 17.49117 | 8941 ft | 265 kts | 136° |
| 2026-05-04 01:24 | 48.63685 | 17.51121 | 8681 ft | 263 kts | 136° |
| 2026-05-04 01:24 | 48.62361 | 17.53005 | 8395 ft | 260 kts | 150° |
| 2026-05-04 01:24 | 48.60686 | 17.53863 | 8143 ft | 254 kts | 174° |
| 2026-05-04 01:25 | 48.58933 | 17.53868 | 7888 ft | 252 kts | 185° |
| 2026-05-04 01:25 | 48.57190 | 17.53630 | 7620 ft | 251 kts | 186° |
| 2026-05-04 01:25 | 48.55458 | 17.53365 | 7352 ft | 250 kts | 186° |
| 2026-05-04 01:25 | 48.53729 | 17.53107 | 7085 ft | 249 kts | 186° |
| 2026-05-04 01:26 | 48.52004 | 17.52863 | 6823 ft | 249 kts | 186° |
| 2026-05-04 01:26 | 48.50283 | 17.52630 | 6556 ft | 248 kts | 185° |
| 2026-05-04 01:26 | 48.48588 | 17.52408 | 6271 ft | 248 kts | 185° |
| 2026-05-04 01:26 | 48.46854 | 17.52184 | 5989 ft | 247 kts | 185° |
| 2026-05-04 01:27 | 48.45146 | 17.51965 | 5717 ft | 245 kts | 185° |
| 2026-05-04 01:27 | 48.43449 | 17.51748 | 5459 ft | 244 kts | 184° |
| 2026-05-04 01:27 | 48.41770 | 17.51531 | 5238 ft | 241 kts | 184° |
| 2026-05-04 01:27 | 48.40137 | 17.51321 | 5058 ft | 235 kts | 184° |
| 2026-05-04 01:28 | 48.38564 | 17.51114 | 4996 ft | 220 kts | 186° |
| 2026-05-04 01:28 | 48.37200 | 17.50305 | 4867 ft | 210 kts | 219° |
| 2026-05-04 01:28 | 48.36204 | 17.48798 | 4796 ft | 197 kts | 220° |
| 2026-05-04 01:28 | 48.35218 | 17.47440 | 4706 ft | 190 kts | 219° |
| 2026-05-04 01:29 | 48.34257 | 17.46100 | 4633 ft | 187 kts | 219° |
| 2026-05-04 01:29 | 48.33311 | 17.44757 | 4528 ft | 191 kts | 220° |
| 2026-05-04 01:29 | 48.32336 | 17.43362 | 4297 ft | 194 kts | 220° |
| 2026-05-04 01:29 | 48.31367 | 17.41967 | 4059 ft | 190 kts | 220° |
| 2026-05-04 01:30 | 48.30424 | 17.40607 | 3826 ft | 186 kts | 219° |
| 2026-05-04 01:30 | 48.29503 | 17.39282 | 3571 ft | 181 kts | 219° |
| 2026-05-04 01:30 | 48.28606 | 17.37990 | 3333 ft | 177 kts | 218° |
| 2026-05-04 01:30 | 48.27732 | 17.36731 | 3106 ft | 172 kts | 218° |
| 2026-05-04 01:31 | 48.26882 | 17.35507 | 2884 ft | 167 kts | 217° |
| 2026-05-04 01:31 | 48.26054 | 17.34314 | 2662 ft | 162 kts | 217° |
| 2026-05-04 01:31 | 48.25250 | 17.33156 | 2451 ft | 158 kts | 216° |
| 2026-05-04 01:31 | 48.24467 | 17.32028 | 2239 ft | 152 kts | 216° |
| 2026-05-04 01:32 | 48.23740 | 17.30977 | 2067 ft | 137 kts | 215° |
| 2026-05-04 01:32 | 48.23069 | 17.30013 | 1883 ft | 133 kts | 215° |
| 2026-05-04 01:32 | 48.22411 | 17.29066 | 1712 ft | 131 kts | 215° |
| 2026-05-04 01:32 | 48.21747 | 17.28111 | 1509 ft | 134 kts | 216° |
| 2026-05-04 01:33 | 48.21067 | 17.27131 | 1330 ft | 138 kts | 218° |
| 2026-05-04 01:33 | 48.20350 | 17.26096 | 1150 ft | 145 kts | 219° |
| 2026-05-04 01:33 | 48.19602 | 17.25042 | 929 ft | 153 kts | 221° |
| 2026-05-04 01:33 | 48.18817 | 17.23910 | 726 ft | 159 kts | 225° |
| 2026-05-04 01:34 | 48.18024 | 17.22740 | 515 ft | 161 kts | 224° |
| 2026-05-04 01:34 | 48.17251 | 17.21630 | 431 ft | 139 kts | 224° |
| 2026-05-04 01:34 | 48.16730 | 17.20878 | 431 ft | 59 kts | 225° |
| 2026-05-04 01:34 | 48.16568 | 17.20642 | 432 ft | 12 kts | 232° |
| 2026-05-04 01:35 | 48.16594 | 17.20542 | 432 ft | 11 kts | 316° |
| 2026-05-04 01:35 | 48.16648 | 17.20459 | 427 ft | 11 kts | 313° |
| 2026-05-04 01:35 | 48.16700 | 17.20377 | 425 ft | 11 kts | 314° |
| 2026-05-04 01:35 | 48.16752 | 17.20300 | 426 ft | 10 kts | 316° |
| 2026-05-04 01:36 | 48.16803 | 17.20227 | 431 ft | 10 kts | 316° |
| 2026-05-04 01:36 | 48.16852 | 17.20157 | 431 ft | 8 kts | 327° |
| 2026-05-04 01:36 | 48.16886 | 17.20168 | 427 ft | 8 kts | 36° |
| 2026-05-04 01:36 | 48.16924 | 17.20224 | 431 ft | 7 kts | 47° |
| 2026-05-04 01:37 | 48.16950 | 17.20261 | 423 ft | 4 kts | 44° |
| 2026-05-04 01:37 | 48.16972 | 17.20261 | 423 ft | 4 kts | 327° |
| 2026-05-04 01:37 | 48.16990 | 17.20235 | 425 ft | 4 kts | 314° |
| 2026-05-04 01:37 | 48.17003 | 17.20216 | 424 ft | 1 kts | 314° |
| 2026-05-04 01:38 | 48.17005 | 17.20213 | 430 ft | 0 kts | 314° |